sensor_id;sensor_type;location;lat;lon;timestamp;temperature;humidity
35129;DHT22;21301;43.626;10.580;2023-07-09T00:00:39;24.90;99.90
35129;DHT22;21301;43.626;10.580;2023-07-09T00:03:05;24.90;99.90
35129;DHT22;21301;43.626;10.580;2023-07-09T00:05:31;24.70;99.90
35129;DHT22;21301;43.626;10.580;2023-07-09T00:07:57;24.80;99.90
35129;DHT22;21301;43.626;10.580;2023-07-09T00:10:23;24.80;99.90
35129;DHT22;21301;43.626;10.580;2023-07-09T00:12:50;24.70;99.90
35129;DHT22;21301;43.626;10.580;2023-07-09T00:15:16;24.60;99.90
35129;DHT22;21301;43.626;10.580;2023-07-09T00:17:45;24.50;1.00
35129;DHT22;21301;43.626;10.580;2023-07-09T00:20:17;24.50;1.00
35129;DHT22;21301;43.626;10.580;2023-07-09T00:22:44;24.30;1.00
35129;DHT22;21301;43.626;10.580;2023-07-09T00:25:13;24.40;1.00
35129;DHT22;21301;43.626;10.580;2023-07-09T00:27:42;24.40;1.00
35129;DHT22;21301;43.626;10.580;2023-07-09T00:30:17;24.40;1.00
35129;DHT22;21301;43.626;10.580;2023-07-09T00:32:43;24.30;1.00
35129;DHT22;21301;43.626;10.580;2023-07-09T00:35:11;24.20;11.50
35129;DHT22;21301;43.626;10.580;2023-07-09T00:37:42;24.20;24.70
35129;DHT22;21301;43.626;10.580;2023-07-09T00:40:17;24.30;27.70
35129;DHT22;21301;43.626;10.580;2023-07-09T00:42:52;24.30;21.80
35129;DHT22;21301;43.626;10.580;2023-07-09T00:45:23;24.40;14.40
35129;DHT22;21301;43.626;10.580;2023-07-09T00:47:58;24.30;1.90
35129;DHT22;21301;43.626;10.580;2023-07-09T00:53:17;24.20;15.50
35129;DHT22;21301;43.626;10.580;2023-07-09T00:55:48;24.20;17.50
35129;DHT22;21301;43.626;10.580;2023-07-09T00:58:16;24.10;17.10
35129;DHT22;21301;43.626;10.580;2023-07-09T01:00:49;24.10;26.50
35129;DHT22;21301;43.626;10.580;2023-07-09T01:03:29;23.90;43.10
35129;DHT22;21301;43.626;10.580;2023-07-09T01:05:59;23.90;63.20
35129;DHT22;21301;43.626;10.580;2023-07-09T01:08:29;24.00;66.50
35129;DHT22;21301;43.626;10.580;2023-07-09T01:10:58;23.90;65.30
35129;DHT22;21301;43.626;10.580;2023-07-09T01:13:28;23.90;76.70
35129;DHT22;21301;43.626;10.580;2023-07-09T01:15:55;23.80;75.50
35129;DHT22;21301;43.626;10.580;2023-07-09T01:18:22;23.80;80.40
35129;DHT22;21301;43.626;10.580;2023-07-09T01:21:01;23.90;91.30
35129;DHT22;21301;43.626;10.580;2023-07-09T01:23:27;23.80;84.40
35129;DHT22;21301;43.626;10.580;2023-07-09T01:25:53;23.80;87.80
35129;DHT22;21301;43.626;10.580;2023-07-09T01:28:20;23.70;82.90
35129;DHT22;21301;43.626;10.580;2023-07-09T01:30:46;23.70;80.80
35129;DHT22;21301;43.626;10.580;2023-07-09T01:33:20;23.80;83.30
35129;DHT22;21301;43.626;10.580;2023-07-09T01:35:46;23.60;82.00
35129;DHT22;21301;43.626;10.580;2023-07-09T01:38:13;23.60;93.30
35129;DHT22;21301;43.626;10.580;2023-07-09T01:40:40;23.60;97.60
35129;DHT22;21301;43.626;10.580;2023-07-09T01:43:07;23.60;99.90
35129;DHT22;21301;43.626;10.580;2023-07-09T01:45:35;23.60;98.50
35129;DHT22;21301;43.626;10.580;2023-07-09T01:48:03;23.60;98.70
35129;DHT22;21301;43.626;10.580;2023-07-09T01:50:29;23.50;99.90
35129;DHT22;21301;43.626;10.580;2023-07-09T01:52:56;23.50;98.20
35129;DHT22;21301;43.626;10.580;2023-07-09T01:55:24;23.30;99.90
35129;DHT22;21301;43.626;10.580;2023-07-09T01:57:50;23.40;99.90
35129;DHT22;21301;43.626;10.580;2023-07-09T02:00:18;23.40;99.90
35129;DHT22;21301;43.626;10.580;2023-07-09T02:02:47;23.40;99.90
35129;DHT22;21301;43.626;10.580;2023-07-09T02:05:19;23.50;99.90
35129;DHT22;21301;43.626;10.580;2023-07-09T02:07:46;23.40;99.90
35129;DHT22;21301;43.626;10.580;2023-07-09T02:10:14;23.30;99.90
35129;DHT22;21301;43.626;10.580;2023-07-09T02:12:41;23.20;99.90
35129;DHT22;21301;43.626;10.580;2023-07-09T02:15:07;23.30;99.90
35129;DHT22;21301;43.626;10.580;2023-07-09T02:17:33;23.40;99.90
35129;DHT22;21301;43.626;10.580;2023-07-09T02:19:59;23.40;99.90
35129;DHT22;21301;43.626;10.580;2023-07-09T02:22:25;23.50;99.90
35129;DHT22;21301;43.626;10.580;2023-07-09T02:24:51;23.40;99.90
35129;DHT22;21301;43.626;10.580;2023-07-09T02:27:20;23.50;99.90
35129;DHT22;21301;43.626;10.580;2023-07-09T02:29:48;23.50;99.90
35129;DHT22;21301;43.626;10.580;2023-07-09T02:32:21;23.50;99.90
35129;DHT22;21301;43.626;10.580;2023-07-09T02:34:47;23.50;99.90
35129;DHT22;21301;43.626;10.580;2023-07-09T02:37:17;23.50;99.90
35129;DHT22;21301;43.626;10.580;2023-07-09T02:39:44;23.50;99.90
35129;DHT22;21301;43.626;10.580;2023-07-09T02:42:12;23.30;99.90
35129;DHT22;21301;43.626;10.580;2023-07-09T02:51:43;23.00;99.90
35129;DHT22;21301;43.626;10.580;2023-07-09T02:54:10;23.10;99.90
35129;DHT22;21301;43.626;10.580;2023-07-09T02:56:37;23.20;99.90
35129;DHT22;21301;43.626;10.580;2023-07-09T02:59:06;23.30;99.90
35129;DHT22;21301;43.626;10.580;2023-07-09T03:04:29;23.20;99.90
35129;DHT22;21301;43.626;10.580;2023-07-09T03:06:57;23.10;99.90
35129;DHT22;21301;43.626;10.580;2023-07-09T03:13:10;22.90;99.90
35129;DHT22;21301;43.626;10.580;2023-07-09T03:15:36;22.80;99.90
35129;DHT22;21301;43.626;10.580;2023-07-09T03:18:02;22.70;99.90
35129;DHT22;21301;43.626;10.580;2023-07-09T03:20:28;22.70;99.90
35129;DHT22;21301;43.626;10.580;2023-07-09T03:22:54;22.80;99.90
35129;DHT22;21301;43.626;10.580;2023-07-09T03:25:20;22.70;99.90
35129;DHT22;21301;43.626;10.580;2023-07-09T03:27:48;22.60;99.90
35129;DHT22;21301;43.626;10.580;2023-07-09T03:30:14;22.50;99.90
35129;DHT22;21301;43.626;10.580;2023-07-09T03:32:39;22.50;99.90
35129;DHT22;21301;43.626;10.580;2023-07-09T03:35:05;22.30;99.90
35129;DHT22;21301;43.626;10.580;2023-07-09T03:37:31;22.30;99.90
35129;DHT22;21301;43.626;10.580;2023-07-09T03:39:58;22.20;99.90
35129;DHT22;21301;43.626;10.580;2023-07-09T03:42:24;22.20;99.90
35129;DHT22;21301;43.626;10.580;2023-07-09T03:44:50;22.20;99.90
35129;DHT22;21301;43.626;10.580;2023-07-09T03:47:15;22.20;99.90
35129;DHT22;21301;43.626;10.580;2023-07-09T03:49:45;22.30;99.90
35129;DHT22;21301;43.626;10.580;2023-07-09T03:52:12;22.20;99.90
35129;DHT22;21301;43.626;10.580;2023-07-09T03:54:38;22.20;99.90
35129;DHT22;21301;43.626;10.580;2023-07-09T03:57:04;22.20;99.90
35129;DHT22;21301;43.626;10.580;2023-07-09T03:59:31;22.40;99.90
35129;DHT22;21301;43.626;10.580;2023-07-09T04:01:57;22.50;99.90
35129;DHT22;21301;43.626;10.580;2023-07-09T04:04:24;22.50;99.90
35129;DHT22;21301;43.626;10.580;2023-07-09T04:06:49;22.60;99.90
35129;DHT22;21301;43.626;10.580;2023-07-09T04:09:16;22.70;99.90
35129;DHT22;21301;43.626;10.580;2023-07-09T04:11:42;22.80;99.90
35129;DHT22;21301;43.626;10.580;2023-07-09T04:14:09;22.80;99.90
35129;DHT22;21301;43.626;10.580;2023-07-09T04:16:35;22.90;99.90
35129;DHT22;21301;43.626;10.580;2023-07-09T04:19:01;22.90;99.90
35129;DHT22;21301;43.626;10.580;2023-07-09T04:21:26;23.00;99.90
35129;DHT22;21301;43.626;10.580;2023-07-09T04:23:52;23.10;99.90
35129;DHT22;21301;43.626;10.580;2023-07-09T04:26:18;23.20;99.90
35129;DHT22;21301;43.626;10.580;2023-07-09T04:28:44;23.30;99.90
35129;DHT22;21301;43.626;10.580;2023-07-09T04:31:11;23.60;99.90
35129;DHT22;21301;43.626;10.580;2023-07-09T04:33:37;23.80;99.90
35129;DHT22;21301;43.626;10.580;2023-07-09T04:36:03;23.90;99.90
35129;DHT22;21301;43.626;10.580;2023-07-09T04:38:33;24.10;99.90
35129;DHT22;21301;43.626;10.580;2023-07-09T04:41:00;24.00;99.90
35129;DHT22;21301;43.626;10.580;2023-07-09T04:43:26;24.30;99.90
35129;DHT22;21301;43.626;10.580;2023-07-09T04:45:52;24.30;99.90
35129;DHT22;21301;43.626;10.580;2023-07-09T04:48:18;24.30;99.90
35129;DHT22;21301;43.626;10.580;2023-07-09T04:50:44;24.50;99.90
35129;DHT22;21301;43.626;10.580;2023-07-09T04:53:10;24.60;99.90
35129;DHT22;21301;43.626;10.580;2023-07-09T04:55:38;24.70;99.90
35129;DHT22;21301;43.626;10.580;2023-07-09T04:58:05;24.70;99.90
35129;DHT22;21301;43.626;10.580;2023-07-09T05:00:31;24.60;99.90
35129;DHT22;21301;43.626;10.580;2023-07-09T05:02:57;24.60;99.90
35129;DHT22;21301;43.626;10.580;2023-07-09T05:05:23;24.80;99.90
35129;DHT22;21301;43.626;10.580;2023-07-09T05:07:51;24.90;99.90
35129;DHT22;21301;43.626;10.580;2023-07-09T05:10:17;25.10;99.90
35129;DHT22;21301;43.626;10.580;2023-07-09T05:12:53;25.20;99.90
35129;DHT22;21301;43.626;10.580;2023-07-09T05:15:21;25.20;99.90
35129;DHT22;21301;43.626;10.580;2023-07-09T05:17:49;25.20;99.90
35129;DHT22;21301;43.626;10.580;2023-07-09T05:20:15;25.20;99.90
35129;DHT22;21301;43.626;10.580;2023-07-09T05:22:41;25.20;99.90
35129;DHT22;21301;43.626;10.580;2023-07-09T05:25:07;25.50;99.90
35129;DHT22;21301;43.626;10.580;2023-07-09T05:27:33;25.70;99.90
35129;DHT22;21301;43.626;10.580;2023-07-09T05:29:59;25.80;99.90
35129;DHT22;21301;43.626;10.580;2023-07-09T05:32:25;25.70;99.90
35129;DHT22;21301;43.626;10.580;2023-07-09T05:34:52;25.70;99.90
35129;DHT22;21301;43.626;10.580;2023-07-09T05:37:19;25.80;99.90
35129;DHT22;21301;43.626;10.580;2023-07-09T05:39:45;25.90;99.90
35129;DHT22;21301;43.626;10.580;2023-07-09T05:42:12;26.20;99.90
35129;DHT22;21301;43.626;10.580;2023-07-09T05:44:38;26.40;98.30
35129;DHT22;21301;43.626;10.580;2023-07-09T05:47:04;26.40;63.40
35129;DHT22;21301;43.626;10.580;2023-07-09T05:49:29;26.60;33.50
35129;DHT22;21301;43.626;10.580;2023-07-09T05:51:55;26.60;12.70
35129;DHT22;21301;43.626;10.580;2023-07-09T05:54:21;26.80;1.00
35129;DHT22;21301;43.626;10.580;2023-07-09T05:56:47;27.00;99.90
35129;DHT22;21301;43.626;10.580;2023-07-09T05:59:15;27.10;99.90
35129;DHT22;21301;43.626;10.580;2023-07-09T06:01:41;27.60;99.90
35129;DHT22;21301;43.626;10.580;2023-07-09T06:04:09;27.70;99.90
35129;DHT22;21301;43.626;10.580;2023-07-09T06:06:40;27.70;1.00
35129;DHT22;21301;43.626;10.580;2023-07-09T06:09:08;28.00;99.90
35129;DHT22;21301;43.626;10.580;2023-07-09T06:11:34;28.10;44.40
35129;DHT22;21301;43.626;10.580;2023-07-09T06:14:00;28.10;99.90
35129;DHT22;21301;43.626;10.580;2023-07-09T06:16:27;28.30;99.90
35129;DHT22;21301;43.626;10.580;2023-07-09T06:18:57;28.30;42.50
35129;DHT22;21301;43.626;10.580;2023-07-09T06:21:24;28.40;99.90
35129;DHT22;21301;43.626;10.580;2023-07-09T06:23:52;28.70;99.90
35129;DHT22;21301;43.626;10.580;2023-07-09T06:26:18;29.40;99.80
35129;DHT22;21301;43.626;10.580;2023-07-09T06:28:45;29.60;1.00
35129;DHT22;21301;43.626;10.580;2023-07-09T06:31:13;29.80;99.90
35129;DHT22;21301;43.626;10.580;2023-07-09T06:33:38;30.00;99.90
35129;DHT22;21301;43.626;10.580;2023-07-09T06:36:05;30.30;99.90
35129;DHT22;21301;43.626;10.580;2023-07-09T06:38:34;30.40;99.90
35129;DHT22;21301;43.626;10.580;2023-07-09T06:41:46;30.40;82.70
35129;DHT22;21301;43.626;10.580;2023-07-09T06:44:32;30.40;53.00
35129;DHT22;21301;43.626;10.580;2023-07-09T06:46:58;30.40;6.00
35129;DHT22;21301;43.626;10.580;2023-07-09T06:49:23;30.50;1.00
35129;DHT22;21301;43.626;10.580;2023-07-09T06:51:50;30.50;1.00
35129;DHT22;21301;43.626;10.580;2023-07-09T06:54:17;31.00;99.90
35129;DHT22;21301;43.626;10.580;2023-07-09T06:56:43;30.90;99.90
35129;DHT22;21301;43.626;10.580;2023-07-09T06:59:10;31.10;99.90
35129;DHT22;21301;43.626;10.580;2023-07-09T07:01:37;31.20;99.90
35129;DHT22;21301;43.626;10.580;2023-07-09T07:04:03;31.40;99.90
35129;DHT22;21301;43.626;10.580;2023-07-09T07:06:29;31.70;99.90
35129;DHT22;21301;43.626;10.580;2023-07-09T07:08:56;31.70;99.90
35129;DHT22;21301;43.626;10.580;2023-07-09T07:11:22;32.10;99.90
35129;DHT22;21301;43.626;10.580;2023-07-09T07:13:48;32.20;99.90
35129;DHT22;21301;43.626;10.580;2023-07-09T07:16:16;32.10;99.90
35129;DHT22;21301;43.626;10.580;2023-07-09T07:18:42;32.50;99.90
35129;DHT22;21301;43.626;10.580;2023-07-09T07:21:08;32.60;99.90
35129;DHT22;21301;43.626;10.580;2023-07-09T07:23:35;32.70;99.90
35129;DHT22;21301;43.626;10.580;2023-07-09T07:26:02;32.70;99.90
35129;DHT22;21301;43.626;10.580;2023-07-09T07:28:30;32.70;99.90
35129;DHT22;21301;43.626;10.580;2023-07-09T07:31:03;32.60;99.90
35129;DHT22;21301;43.626;10.580;2023-07-09T07:33:31;32.70;99.90
35129;DHT22;21301;43.626;10.580;2023-07-09T07:35:57;33.00;99.90
35129;DHT22;21301;43.626;10.580;2023-07-09T07:38:23;32.80;99.90
35129;DHT22;21301;43.626;10.580;2023-07-09T07:40:49;32.90;99.90
35129;DHT22;21301;43.626;10.580;2023-07-09T07:43:14;33.00;99.90
35129;DHT22;21301;43.626;10.580;2023-07-09T07:45:41;33.30;99.90
35129;DHT22;21301;43.626;10.580;2023-07-09T07:48:12;33.10;99.90
35129;DHT22;21301;43.626;10.580;2023-07-09T07:50:39;33.10;99.90
35129;DHT22;21301;43.626;10.580;2023-07-09T07:53:07;33.60;99.90
35129;DHT22;21301;43.626;10.580;2023-07-09T07:55:36;33.60;99.90
35129;DHT22;21301;43.626;10.580;2023-07-09T07:58:02;33.60;99.90
35129;DHT22;21301;43.626;10.580;2023-07-09T08:00:32;33.60;99.90
35129;DHT22;21301;43.626;10.580;2023-07-09T08:02:58;33.40;99.90
35129;DHT22;21301;43.626;10.580;2023-07-09T08:05:25;33.60;99.90
35129;DHT22;21301;43.626;10.580;2023-07-09T08:07:53;33.80;99.90
35129;DHT22;21301;43.626;10.580;2023-07-09T08:10:19;33.80;99.90
35129;DHT22;21301;43.626;10.580;2023-07-09T08:12:45;33.50;99.90
35129;DHT22;21301;43.626;10.580;2023-07-09T08:15:13;33.60;99.90
35129;DHT22;21301;43.626;10.580;2023-07-09T08:17:41;33.70;99.90
35129;DHT22;21301;43.626;10.580;2023-07-09T08:20:11;33.70;99.90
35129;DHT22;21301;43.626;10.580;2023-07-09T08:22:40;34.10;99.90
35129;DHT22;21301;43.626;10.580;2023-07-09T08:25:07;34.50;99.90
35129;DHT22;21301;43.626;10.580;2023-07-09T08:27:33;34.30;99.90
35129;DHT22;21301;43.626;10.580;2023-07-09T08:29:58;34.20;99.90
35129;DHT22;21301;43.626;10.580;2023-07-09T08:32:26;34.60;99.90
35129;DHT22;21301;43.626;10.580;2023-07-09T08:34:54;34.50;99.90
35129;DHT22;21301;43.626;10.580;2023-07-09T08:37:20;34.60;99.90
35129;DHT22;21301;43.626;10.580;2023-07-09T08:39:46;34.90;99.90
35129;DHT22;21301;43.626;10.580;2023-07-09T08:42:16;35.00;99.90
35129;DHT22;21301;43.626;10.580;2023-07-09T08:48:03;34.90;99.90
35129;DHT22;21301;43.626;10.580;2023-07-09T08:50:15;34.90;99.90
35129;DHT22;21301;43.626;10.580;2023-07-09T08:52:44;35.00;99.90
35129;DHT22;21301;43.626;10.580;2023-07-09T08:55:20;35.20;99.90
35129;DHT22;21301;43.626;10.580;2023-07-09T08:57:55;35.30;99.90
35129;DHT22;21301;43.626;10.580;2023-07-09T09:00:36;35.50;99.90
35129;DHT22;21301;43.626;10.580;2023-07-09T09:03:31;35.90;99.90
35129;DHT22;21301;43.626;10.580;2023-07-09T09:06:01;36.20;99.90
35129;DHT22;21301;43.626;10.580;2023-07-09T09:14:34;36.50;99.90
35129;DHT22;21301;43.626;10.580;2023-07-09T09:17:04;36.40;99.90
35129;DHT22;21301;43.626;10.580;2023-07-09T09:20:00;36.80;99.90
35129;DHT22;21301;43.626;10.580;2023-07-09T09:22:52;36.90;99.90
35129;DHT22;21301;43.626;10.580;2023-07-09T09:25:31;36.60;99.90
35129;DHT22;21301;43.626;10.580;2023-07-09T09:28:03;36.00;99.90
35129;DHT22;21301;43.626;10.580;2023-07-09T09:30:30;36.50;99.90
35129;DHT22;21301;43.626;10.580;2023-07-09T09:33:01;36.80;99.90
35129;DHT22;21301;43.626;10.580;2023-07-09T09:35:38;37.20;99.90
35129;DHT22;21301;43.626;10.580;2023-07-09T09:38:20;37.20;99.90
35129;DHT22;21301;43.626;10.580;2023-07-09T09:40:49;37.20;99.90
35129;DHT22;21301;43.626;10.580;2023-07-09T09:43:18;36.90;99.90
35129;DHT22;21301;43.626;10.580;2023-07-09T09:45:48;36.80;99.90
35129;DHT22;21301;43.626;10.580;2023-07-09T09:48:28;37.00;99.90
35129;DHT22;21301;43.626;10.580;2023-07-09T09:50:55;37.20;99.90
35129;DHT22;21301;43.626;10.580;2023-07-09T09:53:34;37.10;99.90
35129;DHT22;21301;43.626;10.580;2023-07-09T09:56:06;37.30;99.90
35129;DHT22;21301;43.626;10.580;2023-07-09T09:58:40;37.10;99.90
35129;DHT22;21301;43.626;10.580;2023-07-09T10:01:17;37.30;99.90
35129;DHT22;21301;43.626;10.580;2023-07-09T10:03:47;37.50;99.90
35129;DHT22;21301;43.626;10.580;2023-07-09T10:06:24;37.70;99.90
35129;DHT22;21301;43.626;10.580;2023-07-09T10:09:13;37.40;99.90
35129;DHT22;21301;43.626;10.580;2023-07-09T10:11:46;37.60;99.90
35129;DHT22;21301;43.626;10.580;2023-07-09T10:14:51;37.20;98.00
35129;DHT22;21301;43.626;10.580;2023-07-09T10:17:36;37.30;98.50
35129;DHT22;21301;43.626;10.580;2023-07-09T10:33:34;37.40;95.40
35129;DHT22;21301;43.626;10.580;2023-07-09T10:36:21;37.20;93.90
35129;DHT22;21301;43.626;10.580;2023-07-09T10:38:51;37.00;92.60
35129;DHT22;21301;43.626;10.580;2023-07-09T10:41:21;37.30;94.50
35129;DHT22;21301;43.626;10.580;2023-07-09T10:43:51;37.50;94.50
35129;DHT22;21301;43.626;10.580;2023-07-09T10:46:23;38.00;93.80
35129;DHT22;21301;43.626;10.580;2023-07-09T10:48:52;38.20;91.60
35129;DHT22;21301;43.626;10.580;2023-07-09T10:56:40;37.60;87.00
35129;DHT22;21301;43.626;10.580;2023-07-09T11:03:18;37.20;83.60
35129;DHT22;21301;43.626;10.580;2023-07-09T11:05:46;37.90;88.50
35129;DHT22;21301;43.626;10.580;2023-07-09T11:08:17;37.50;84.00
35129;DHT22;21301;43.626;10.580;2023-07-09T11:11:15;36.40;79.90
35129;DHT22;21301;43.626;10.580;2023-07-09T11:13:49;36.30;79.70
35129;DHT22;21301;43.626;10.580;2023-07-09T11:16:24;36.40;81.10
35129;DHT22;21301;43.626;10.580;2023-07-09T11:18:58;35.90;80.80
35129;DHT22;21301;43.626;10.580;2023-07-09T11:21:24;35.30;80.20
35129;DHT22;21301;43.626;10.580;2023-07-09T11:23:53;35.80;84.30
35129;DHT22;21301;43.626;10.580;2023-07-09T11:26:29;35.90;83.30
35129;DHT22;21301;43.626;10.580;2023-07-09T11:29:17;35.70;80.60
35129;DHT22;21301;43.626;10.580;2023-07-09T11:31:45;36.40;78.70
35129;DHT22;21301;43.626;10.580;2023-07-09T11:36:58;36.90;77.70
35129;DHT22;21301;43.626;10.580;2023-07-09T11:39:46;36.60;79.90
35129;DHT22;21301;43.626;10.580;2023-07-09T11:42:49;36.40;75.20
35129;DHT22;21301;43.626;10.580;2023-07-09T11:45:20;37.10;73.90
35129;DHT22;21301;43.626;10.580;2023-07-09T11:47:52;37.10;73.00
35129;DHT22;21301;43.626;10.580;2023-07-09T11:50:41;37.10;73.30
35129;DHT22;21301;43.626;10.580;2023-07-09T11:55:47;37.20;71.00
35129;DHT22;21301;43.626;10.580;2023-07-09T11:58:16;36.60;70.90
35129;DHT22;21301;43.626;10.580;2023-07-09T12:00:48;36.90;74.40
35129;DHT22;21301;43.626;10.580;2023-07-09T12:03:21;37.50;70.80
35129;DHT22;21301;43.626;10.580;2023-07-09T12:06:00;37.60;68.60
35129;DHT22;21301;43.626;10.580;2023-07-09T12:08:36;38.10;66.80
35129;DHT22;21301;43.626;10.580;2023-07-09T12:11:03;38.20;65.00
35129;DHT22;21301;43.626;10.580;2023-07-09T12:13:37;38.00;63.40
35129;DHT22;21301;43.626;10.580;2023-07-09T12:16:03;37.50;63.90
35129;DHT22;21301;43.626;10.580;2023-07-09T12:18:30;37.40;61.50
35129;DHT22;21301;43.626;10.580;2023-07-09T12:20:57;37.00;61.90
35129;DHT22;21301;43.626;10.580;2023-07-09T12:23:31;36.90;61.20
35129;DHT22;21301;43.626;10.580;2023-07-09T12:26:03;37.00;58.50
35129;DHT22;21301;43.626;10.580;2023-07-09T12:28:32;36.90;59.60
35129;DHT22;21301;43.626;10.580;2023-07-09T12:31:14;36.70;60.50
35129;DHT22;21301;43.626;10.580;2023-07-09T12:33:49;36.20;58.70
35129;DHT22;21301;43.626;10.580;2023-07-09T12:36:21;36.40;59.70
35129;DHT22;21301;43.626;10.580;2023-07-09T12:38:52;36.70;59.20
35129;DHT22;21301;43.626;10.580;2023-07-09T12:41:34;36.80;57.60
35129;DHT22;21301;43.626;10.580;2023-07-09T12:44:02;37.30;53.80
35129;DHT22;21301;43.626;10.580;2023-07-09T12:46:31;36.90;51.50
35129;DHT22;21301;43.626;10.580;2023-07-09T12:49:01;37.30;50.30
35129;DHT22;21301;43.626;10.580;2023-07-09T12:51:29;37.70;51.60
35129;DHT22;21301;43.626;10.580;2023-07-09T12:54:14;37.90;50.40
35129;DHT22;21301;43.626;10.580;2023-07-09T12:56:41;38.20;51.90
35129;DHT22;21301;43.626;10.580;2023-07-09T12:59:28;38.40;55.20
35129;DHT22;21301;43.626;10.580;2023-07-09T13:02:22;38.50;53.90
35129;DHT22;21301;43.626;10.580;2023-07-09T13:04:49;38.30;55.70
35129;DHT22;21301;43.626;10.580;2023-07-09T13:07:27;37.90;68.00
35129;DHT22;21301;43.626;10.580;2023-07-09T13:09:55;37.80;75.10
35129;DHT22;21301;43.626;10.580;2023-07-09T13:12:31;37.70;77.70
35129;DHT22;21301;43.626;10.580;2023-07-09T13:14:57;38.10;71.80
35129;DHT22;21301;43.626;10.580;2023-07-09T13:17:43;38.20;73.50
35129;DHT22;21301;43.626;10.580;2023-07-09T13:20:09;38.00;72.50
35129;DHT22;21301;43.626;10.580;2023-07-09T13:22:36;38.00;74.80
35129;DHT22;21301;43.626;10.580;2023-07-09T13:25:02;37.70;76.20
35129;DHT22;21301;43.626;10.580;2023-07-09T13:27:30;37.70;78.20
35129;DHT22;21301;43.626;10.580;2023-07-09T13:29:56;37.90;78.10
35129;DHT22;21301;43.626;10.580;2023-07-09T13:32:22;37.20;76.40
35129;DHT22;21301;43.626;10.580;2023-07-09T13:34:48;37.50;77.60
35129;DHT22;21301;43.626;10.580;2023-07-09T13:41:14;37.80;76.50
35129;DHT22;21301;43.626;10.580;2023-07-09T13:43:46;37.70;79.60
35129;DHT22;21301;43.626;10.580;2023-07-09T13:46:13;37.70;80.60
35129;DHT22;21301;43.626;10.580;2023-07-09T13:48:40;37.80;80.30
35129;DHT22;21301;43.626;10.580;2023-07-09T13:51:25;37.60;80.20
35129;DHT22;21301;43.626;10.580;2023-07-09T13:53:53;37.50;78.80
35129;DHT22;21301;43.626;10.580;2023-07-09T13:56:19;37.30;82.00
35129;DHT22;21301;43.626;10.580;2023-07-09T13:58:46;37.40;83.10
35129;DHT22;21301;43.626;10.580;2023-07-09T14:01:18;37.50;81.60
35129;DHT22;21301;43.626;10.580;2023-07-09T14:03:46;37.60;81.90
35129;DHT22;21301;43.626;10.580;2023-07-09T14:06:13;37.70;81.70
35129;DHT22;21301;43.626;10.580;2023-07-09T14:08:39;37.80;79.80
35129;DHT22;21301;43.626;10.580;2023-07-09T14:11:13;37.80;80.90
35129;DHT22;21301;43.626;10.580;2023-07-09T14:13:40;37.60;79.40
35129;DHT22;21301;43.626;10.580;2023-07-09T14:16:11;37.90;79.70
35129;DHT22;21301;43.626;10.580;2023-07-09T14:18:37;37.70;79.00
35129;DHT22;21301;43.626;10.580;2023-07-09T14:21:20;37.70;79.50
35129;DHT22;21301;43.626;10.580;2023-07-09T14:23:50;38.00;78.20
35129;DHT22;21301;43.626;10.580;2023-07-09T14:26:19;37.80;79.80
35129;DHT22;21301;43.626;10.580;2023-07-09T14:28:47;37.80;79.50
35129;DHT22;21301;43.626;10.580;2023-07-09T14:31:20;37.70;78.80
35129;DHT22;21301;43.626;10.580;2023-07-09T14:33:50;37.70;79.90
35129;DHT22;21301;43.626;10.580;2023-07-09T14:36:16;37.60;76.60
35129;DHT22;21301;43.626;10.580;2023-07-09T14:38:42;37.30;76.90
35129;DHT22;21301;43.626;10.580;2023-07-09T14:41:21;37.40;77.50
35129;DHT22;21301;43.626;10.580;2023-07-09T14:43:47;37.30;76.20
35129;DHT22;21301;43.626;10.580;2023-07-09T14:46:13;37.10;73.10
35129;DHT22;21301;43.626;10.580;2023-07-09T14:48:39;37.50;72.20
35129;DHT22;21301;43.626;10.580;2023-07-09T14:51:15;37.90;73.00
35129;DHT22;21301;43.626;10.580;2023-07-09T14:53:59;37.30;68.00
35129;DHT22;21301;43.626;10.580;2023-07-09T14:59:50;38.00;68.80
35129;DHT22;21301;43.626;10.580;2023-07-09T15:02:23;37.90;67.40
35129;DHT22;21301;43.626;10.580;2023-07-09T15:04:52;37.10;66.80
35129;DHT22;21301;43.626;10.580;2023-07-09T15:07:17;36.90;66.90
35129;DHT22;21301;43.626;10.580;2023-07-09T15:09:44;37.20;67.60
35129;DHT22;21301;43.626;10.580;2023-07-09T15:12:22;37.20;65.60
35129;DHT22;21301;43.626;10.580;2023-07-09T15:14:51;37.50;66.80
35129;DHT22;21301;43.626;10.580;2023-07-09T15:17:17;37.50;65.90
35129;DHT22;21301;43.626;10.580;2023-07-09T15:19:44;37.70;66.50
35129;DHT22;21301;43.626;10.580;2023-07-09T15:22:33;37.60;66.40
35129;DHT22;21301;43.626;10.580;2023-07-09T15:25:00;37.80;65.00
35129;DHT22;21301;43.626;10.580;2023-07-09T15:27:26;37.70;65.60
35129;DHT22;21301;43.626;10.580;2023-07-09T15:29:53;37.50;66.30
35129;DHT22;21301;43.626;10.580;2023-07-09T15:32:18;37.30;67.10
35129;DHT22;21301;43.626;10.580;2023-07-09T15:34:46;37.10;67.70
35129;DHT22;21301;43.626;10.580;2023-07-09T15:37:17;37.40;69.30
35129;DHT22;21301;43.626;10.580;2023-07-09T15:39:43;37.40;67.30
35129;DHT22;21301;43.626;10.580;2023-07-09T15:42:11;37.50;67.90
35129;DHT22;21301;43.626;10.580;2023-07-09T15:44:37;37.20;66.40
35129;DHT22;21301;43.626;10.580;2023-07-09T15:47:03;37.20;68.00
35129;DHT22;21301;43.626;10.580;2023-07-09T15:49:34;37.10;69.20
35129;DHT22;21301;43.626;10.580;2023-07-09T15:52:01;37.20;69.60
35129;DHT22;21301;43.626;10.580;2023-07-09T15:54:36;36.70;68.60
35129;DHT22;21301;43.626;10.580;2023-07-09T15:57:02;37.00;70.50
35129;DHT22;21301;43.626;10.580;2023-07-09T15:59:34;36.70;71.60
35129;DHT22;21301;43.626;10.580;2023-07-09T16:02:03;36.80;72.00
35129;DHT22;21301;43.626;10.580;2023-07-09T16:04:34;37.10;71.90
35129;DHT22;21301;43.626;10.580;2023-07-09T16:07:01;36.50;70.10
35129;DHT22;21301;43.626;10.580;2023-07-09T16:09:27;36.90;73.00
35129;DHT22;21301;43.626;10.580;2023-07-09T16:11:54;37.10;72.00
35129;DHT22;21301;43.626;10.580;2023-07-09T16:14:27;36.00;70.20
35129;DHT22;21301;43.626;10.580;2023-07-09T16:16:54;36.30;71.90
35129;DHT22;21301;43.626;10.580;2023-07-09T16:19:23;36.00;71.40
35129;DHT22;21301;43.626;10.580;2023-07-09T16:21:56;36.30;73.90
35129;DHT22;21301;43.626;10.580;2023-07-09T16:24:29;36.50;73.50
35129;DHT22;21301;43.626;10.580;2023-07-09T16:26:56;36.70;74.10
35129;DHT22;21301;43.626;10.580;2023-07-09T16:29:24;36.20;71.60
35129;DHT22;21301;43.626;10.580;2023-07-09T16:31:56;36.00;72.00
35129;DHT22;21301;43.626;10.580;2023-07-09T16:34:24;36.20;72.50